Bila Tserkva, Ukraine

10:56 PM EEST on July 29, 2016 (GMT +0300)
Zhuliany | | Change Station

Elev 584 ft 50.40 °N, 30.45 °E | Updated 26 minutes ago

Clear
Clear
73 °F
Feels Like 73 °F
N
4
Wind Variable Wind from West

Today
High -- | Low -- °F
--% Chance of Precip.
Yesterday
High -- | Low -- °F
Precip. -- in
Pressure 29.86 in
Visibility 6.2 miles
Clouds
Dew Point 63 °F
Humidity 69%
Rainfall 0.00 in
Snow Depth Not available.
5:25 AM 8:45 PM
Waning Crescent, 19% visible
METAR UKKK 291930Z 26002MPS 200V290 9999 NSC 23/17 Q1011 R26/CLRD70 NOSIG
Pressure 29.86 in
Visibility 6.2 miles
Clouds
Dew Point 63 °F
Humidity 69%
Rainfall 0.00 in
Snow Depth Not available.
5:25 AM 8:45 PM
Waning Crescent, 19% visible
METAR UKKK 291930Z 26002MPS 200V290 9999 NSC 23/17 Q1011 R26/CLRD70 NOSIG

10-Day Weather Forecast

×

Almanac

Astronomy

Jul. 29, 2016 Rise Set
Actual Time
Civil Twilight
Nautical Twilight
Astronomical Twilight
Moon
Length of Visible Light
Length of Day
Tomorrow will be .
, % of the Moon is Illuminated

Today's Extremes

Country Highs Country Lows

Community

WunderPhotos

Upload Photos

1,928,401 photos uploaded!

WunderBlog® & News

Nearby

Air Quality

  Air Quality AQ Index Pollutant
Not available.

Snow Depth

Station Depth Elevation

Earthquake Activity

City Distance Mag. Time & Date
Minimum magnitude displayed is 2.5.

Coastal Water Temperatures

Place Temperature

Stations

Nearby Weather Stations

Station Location Temp. Windchill Dew Point Humidity Wind Precip. Elev Updated Type